sensor_id;sensor_type;location;lat;lon;timestamp;temperature;humidity
21778;DHT22;11050;52.222;20.916;2024-01-06T00:01:45;-0.90;99.90
21778;DHT22;11050;52.222;20.916;2024-01-06T00:04:11;-0.90;99.90
21778;DHT22;11050;52.222;20.916;2024-01-06T00:06:37;-1.00;99.90
21778;DHT22;11050;52.222;20.916;2024-01-06T00:09:02;-0.90;99.90
21778;DHT22;11050;52.222;20.916;2024-01-06T00:11:28;-1.00;99.90
21778;DHT22;11050;52.222;20.916;2024-01-06T00:13:54;-0.90;99.90
21778;DHT22;11050;52.222;20.916;2024-01-06T00:16:20;-0.90;99.90
21778;DHT22;11050;52.222;20.916;2024-01-06T00:18:46;-0.90;99.90
21778;DHT22;11050;52.222;20.916;2024-01-06T00:21:13;-0.90;99.90
21778;DHT22;11050;52.222;20.916;2024-01-06T00:23:42;-0.90;99.90
21778;DHT22;11050;52.222;20.916;2024-01-06T00:26:09;-0.80;99.90
21778;DHT22;11050;52.222;20.916;2024-01-06T00:28:35;-0.90;99.90
21778;DHT22;11050;52.222;20.916;2024-01-06T00:31:01;-0.90;99.90
21778;DHT22;11050;52.222;20.916;2024-01-06T00:33:26;-0.80;99.90
21778;DHT22;11050;52.222;20.916;2024-01-06T00:35:52;-0.80;99.90
21778;DHT22;11050;52.222;20.916;2024-01-06T00:38:20;-0.80;99.90
21778;DHT22;11050;52.222;20.916;2024-01-06T00:40:46;-0.80;99.90
21778;DHT22;11050;52.222;20.916;2024-01-06T00:43:11;-0.80;99.90
21778;DHT22;11050;52.222;20.916;2024-01-06T00:45:37;-0.80;99.90
21778;DHT22;11050;52.222;20.916;2024-01-06T00:48:04;-0.80;99.90
21778;DHT22;11050;52.222;20.916;2024-01-06T00:50:30;-0.80;99.90
21778;DHT22;11050;52.222;20.916;2024-01-06T00:52:56;-0.80;99.90
21778;DHT22;11050;52.222;20.916;2024-01-06T00:55:22;-0.80;99.90
21778;DHT22;11050;52.222;20.916;2024-01-06T00:57:49;-0.80;99.90
21778;DHT22;11050;52.222;20.916;2024-01-06T01:00:15;-0.80;99.90
21778;DHT22;11050;52.222;20.916;2024-01-06T01:02:41;-0.90;99.90
21778;DHT22;11050;52.222;20.916;2024-01-06T01:05:07;-0.90;99.90
21778;DHT22;11050;52.222;20.916;2024-01-06T01:07:33;-0.90;99.90
21778;DHT22;11050;52.222;20.916;2024-01-06T01:09:59;-0.90;99.90
21778;DHT22;11050;52.222;20.916;2024-01-06T01:12:25;-0.90;99.90
21778;DHT22;11050;52.222;20.916;2024-01-06T01:14:52;-0.90;99.90
21778;DHT22;11050;52.222;20.916;2024-01-06T01:17:18;-0.90;99.90
21778;DHT22;11050;52.222;20.916;2024-01-06T01:19:45;-0.90;99.90
21778;DHT22;11050;52.222;20.916;2024-01-06T01:22:11;-0.90;99.90
21778;DHT22;11050;52.222;20.916;2024-01-06T01:24:37;-1.00;99.90
21778;DHT22;11050;52.222;20.916;2024-01-06T01:27:03;-1.00;99.90
21778;DHT22;11050;52.222;20.916;2024-01-06T01:29:29;-1.00;99.90
21778;DHT22;11050;52.222;20.916;2024-01-06T01:31:55;-1.00;99.90
21778;DHT22;11050;52.222;20.916;2024-01-06T01:34:21;-1.00;99.90
21778;DHT22;11050;52.222;20.916;2024-01-06T01:36:47;-1.00;99.90
21778;DHT22;11050;52.222;20.916;2024-01-06T01:39:12;-1.00;99.90
21778;DHT22;11050;52.222;20.916;2024-01-06T01:41:40;-1.10;99.90
21778;DHT22;11050;52.222;20.916;2024-01-06T01:44:06;-1.10;99.90
21778;DHT22;11050;52.222;20.916;2024-01-06T01:46:32;-1.10;99.90
21778;DHT22;11050;52.222;20.916;2024-01-06T01:49:00;-1.10;99.90
21778;DHT22;11050;52.222;20.916;2024-01-06T01:51:29;-1.10;99.90
21778;DHT22;11050;52.222;20.916;2024-01-06T01:53:57;-1.10;99.90
21778;DHT22;11050;52.222;20.916;2024-01-06T01:56:25;-1.10;99.90
21778;DHT22;11050;52.222;20.916;2024-01-06T01:58:52;-1.20;99.90
21778;DHT22;11050;52.222;20.916;2024-01-06T02:01:18;-1.20;99.90
21778;DHT22;11050;52.222;20.916;2024-01-06T02:03:45;-1.20;99.90
21778;DHT22;11050;52.222;20.916;2024-01-06T02:06:11;-1.20;99.90
21778;DHT22;11050;52.222;20.916;2024-01-06T02:08:38;-1.20;99.90
21778;DHT22;11050;52.222;20.916;2024-01-06T02:11:04;-1.20;99.90
21778;DHT22;11050;52.222;20.916;2024-01-06T02:13:37;-1.20;99.90
21778;DHT22;11050;52.222;20.916;2024-01-06T02:16:04;-1.20;99.90
21778;DHT22;11050;52.222;20.916;2024-01-06T02:18:31;-1.20;99.90
21778;DHT22;11050;52.222;20.916;2024-01-06T02:20:59;-1.20;99.90
21778;DHT22;11050;52.222;20.916;2024-01-06T02:23:29;-1.10;99.90
21778;DHT22;11050;52.222;20.916;2024-01-06T02:25:56;-1.20;99.90
21778;DHT22;11050;52.222;20.916;2024-01-06T02:28:22;-1.10;99.90
21778;DHT22;11050;52.222;20.916;2024-01-06T02:30:48;-1.10;99.90
21778;DHT22;11050;52.222;20.916;2024-01-06T02:33:14;-1.10;99.90
21778;DHT22;11050;52.222;20.916;2024-01-06T02:35:40;-1.10;99.90
21778;DHT22;11050;52.222;20.916;2024-01-06T02:38:06;-1.10;99.90
21778;DHT22;11050;52.222;20.916;2024-01-06T02:40:32;-1.10;99.90
21778;DHT22;11050;52.222;20.916;2024-01-06T02:42:59;-1.10;99.90
21778;DHT22;11050;52.222;20.916;2024-01-06T02:45:24;-1.10;99.90
21778;DHT22;11050;52.222;20.916;2024-01-06T02:47:50;-1.10;99.90
21778;DHT22;11050;52.222;20.916;2024-01-06T02:50:17;-1.10;99.90
21778;DHT22;11050;52.222;20.916;2024-01-06T02:52:44;-1.10;99.90
21778;DHT22;11050;52.222;20.916;2024-01-06T02:55:13;-1.10;99.90
21778;DHT22;11050;52.222;20.916;2024-01-06T02:57:39;-1.10;99.90
21778;DHT22;11050;52.222;20.916;2024-01-06T03:00:07;-1.10;99.90
21778;DHT22;11050;52.222;20.916;2024-01-06T03:02:33;-1.00;99.90
21778;DHT22;11050;52.222;20.916;2024-01-06T03:05:01;-1.00;99.90
21778;DHT22;11050;52.222;20.916;2024-01-06T03:07:27;-1.10;99.90
21778;DHT22;11050;52.222;20.916;2024-01-06T03:09:53;-1.10;99.90
21778;DHT22;11050;52.222;20.916;2024-01-06T03:12:19;-1.00;99.90
21778;DHT22;11050;52.222;20.916;2024-01-06T03:14:44;-1.00;99.90
21778;DHT22;11050;52.222;20.916;2024-01-06T03:17:10;-1.00;99.90
21778;DHT22;11050;52.222;20.916;2024-01-06T03:19:36;-1.00;99.90
21778;DHT22;11050;52.222;20.916;2024-01-06T03:22:02;-1.10;99.90
21778;DHT22;11050;52.222;20.916;2024-01-06T03:24:28;-1.10;99.90
21778;DHT22;11050;52.222;20.916;2024-01-06T03:26:54;-1.10;99.90
21778;DHT22;11050;52.222;20.916;2024-01-06T03:29:19;-1.10;99.90
21778;DHT22;11050;52.222;20.916;2024-01-06T03:31:45;-1.10;99.90
21778;DHT22;11050;52.222;20.916;2024-01-06T03:34:12;-1.10;99.90
21778;DHT22;11050;52.222;20.916;2024-01-06T03:36:39;-1.10;99.90
21778;DHT22;11050;52.222;20.916;2024-01-06T03:39:06;-1.00;99.90
21778;DHT22;11050;52.222;20.916;2024-01-06T03:41:32;-1.00;99.90
21778;DHT22;11050;52.222;20.916;2024-01-06T03:43:58;-1.10;99.90
21778;DHT22;11050;52.222;20.916;2024-01-06T03:46:24;-1.00;99.90
21778;DHT22;11050;52.222;20.916;2024-01-06T03:48:50;-1.00;99.90
21778;DHT22;11050;52.222;20.916;2024-01-06T03:51:16;-1.00;99.90
21778;DHT22;11050;52.222;20.916;2024-01-06T03:53:42;-1.00;99.90
21778;DHT22;11050;52.222;20.916;2024-01-06T03:56:08;-1.00;99.90
21778;DHT22;11050;52.222;20.916;2024-01-06T03:58:34;-1.00;99.90
21778;DHT22;11050;52.222;20.916;2024-01-06T04:01:00;-1.00;99.90
21778;DHT22;11050;52.222;20.916;2024-01-06T04:03:26;-1.00;99.90
21778;DHT22;11050;52.222;20.916;2024-01-06T04:05:52;-0.90;99.90
21778;DHT22;11050;52.222;20.916;2024-01-06T04:08:18;-1.00;99.90
21778;DHT22;11050;52.222;20.916;2024-01-06T04:10:44;-1.00;99.90
21778;DHT22;11050;52.222;20.916;2024-01-06T04:13:11;-0.90;99.90
21778;DHT22;11050;52.222;20.916;2024-01-06T04:15:37;-0.90;99.90
21778;DHT22;11050;52.222;20.916;2024-01-06T04:18:04;-0.90;99.90
21778;DHT22;11050;52.222;20.916;2024-01-06T04:20:31;-0.90;99.90
21778;DHT22;11050;52.222;20.916;2024-01-06T04:22:58;-0.90;99.90
21778;DHT22;11050;52.222;20.916;2024-01-06T04:25:24;-0.90;99.90
21778;DHT22;11050;52.222;20.916;2024-01-06T04:27:50;-0.90;99.90
21778;DHT22;11050;52.222;20.916;2024-01-06T04:30:17;-0.90;99.90
21778;DHT22;11050;52.222;20.916;2024-01-06T04:32:43;-0.90;99.90
21778;DHT22;11050;52.222;20.916;2024-01-06T04:35:09;-0.90;99.90
21778;DHT22;11050;52.222;20.916;2024-01-06T04:37:35;-0.90;99.90
21778;DHT22;11050;52.222;20.916;2024-01-06T04:40:02;-0.90;99.90
21778;DHT22;11050;52.222;20.916;2024-01-06T04:42:29;-0.90;99.90
21778;DHT22;11050;52.222;20.916;2024-01-06T04:44:54;-0.90;99.90
21778;DHT22;11050;52.222;20.916;2024-01-06T04:47:20;-0.90;99.90
21778;DHT22;11050;52.222;20.916;2024-01-06T04:49:46;-0.90;99.90
21778;DHT22;11050;52.222;20.916;2024-01-06T04:52:12;-0.90;99.90
21778;DHT22;11050;52.222;20.916;2024-01-06T04:54:38;-0.80;99.90
21778;DHT22;11050;52.222;20.916;2024-01-06T04:57:04;-0.80;99.90
21778;DHT22;11050;52.222;20.916;2024-01-06T04:59:30;-0.80;99.90
21778;DHT22;11050;52.222;20.916;2024-01-06T05:01:57;-0.80;99.90
21778;DHT22;11050;52.222;20.916;2024-01-06T05:04:24;-0.80;99.90
21778;DHT22;11050;52.222;20.916;2024-01-06T05:06:51;-0.80;99.90
21778;DHT22;11050;52.222;20.916;2024-01-06T05:09:17;-0.80;99.90
21778;DHT22;11050;52.222;20.916;2024-01-06T05:11:44;-0.80;99.90
21778;DHT22;11050;52.222;20.916;2024-01-06T05:14:10;-0.80;99.90
21778;DHT22;11050;52.222;20.916;2024-01-06T05:16:36;-0.80;99.90
21778;DHT22;11050;52.222;20.916;2024-01-06T05:19:02;-0.80;99.90
21778;DHT22;11050;52.222;20.916;2024-01-06T05:21:28;-0.80;99.90
21778;DHT22;11050;52.222;20.916;2024-01-06T05:23:55;-0.80;99.90
21778;DHT22;11050;52.222;20.916;2024-01-06T05:26:20;-0.90;99.90
21778;DHT22;11050;52.222;20.916;2024-01-06T05:28:46;-0.90;99.90
21778;DHT22;11050;52.222;20.916;2024-01-06T05:31:12;-0.80;99.90
21778;DHT22;11050;52.222;20.916;2024-01-06T05:33:38;-0.90;99.90
21778;DHT22;11050;52.222;20.916;2024-01-06T05:36:04;-0.90;99.90
21778;DHT22;11050;52.222;20.916;2024-01-06T05:38:30;-0.90;99.90
21778;DHT22;11050;52.222;20.916;2024-01-06T05:40:56;-1.00;99.90
21778;DHT22;11050;52.222;20.916;2024-01-06T05:43:21;-0.90;99.90
21778;DHT22;11050;52.222;20.916;2024-01-06T05:45:47;-0.90;99.90
21778;DHT22;11050;52.222;20.916;2024-01-06T05:48:13;-0.90;99.90
21778;DHT22;11050;52.222;20.916;2024-01-06T05:50:39;-1.00;99.90
21778;DHT22;11050;52.222;20.916;2024-01-06T05:53:05;-1.00;99.90
21778;DHT22;11050;52.222;20.916;2024-01-06T05:55:31;-1.00;99.90
21778;DHT22;11050;52.222;20.916;2024-01-06T05:57:57;-1.00;99.90
21778;DHT22;11050;52.222;20.916;2024-01-06T06:00:23;-1.00;99.90
21778;DHT22;11050;52.222;20.916;2024-01-06T06:02:49;-1.00;99.90
21778;DHT22;11050;52.222;20.916;2024-01-06T06:05:15;-1.00;99.90
21778;DHT22;11050;52.222;20.916;2024-01-06T06:07:40;-1.00;99.90
21778;DHT22;11050;52.222;20.916;2024-01-06T06:10:08;-1.00;99.90
21778;DHT22;11050;52.222;20.916;2024-01-06T06:12:35;-1.10;99.90
21778;DHT22;11050;52.222;20.916;2024-01-06T06:15:05;-1.00;99.90
21778;DHT22;11050;52.222;20.916;2024-01-06T06:17:32;-1.00;99.90
21778;DHT22;11050;52.222;20.916;2024-01-06T06:19:58;-1.10;99.90
21778;DHT22;11050;52.222;20.916;2024-01-06T06:22:25;-1.10;99.90
21778;DHT22;11050;52.222;20.916;2024-01-06T06:24:56;-1.10;99.90
21778;DHT22;11050;52.222;20.916;2024-01-06T06:27:22;-1.10;99.90
21778;DHT22;11050;52.222;20.916;2024-01-06T06:29:49;-1.10;99.90
21778;DHT22;11050;52.222;20.916;2024-01-06T06:32:15;-1.10;99.90
21778;DHT22;11050;52.222;20.916;2024-01-06T06:34:41;-1.00;99.90
21778;DHT22;11050;52.222;20.916;2024-01-06T06:37:08;-1.10;99.90
21778;DHT22;11050;52.222;20.916;2024-01-06T06:39:33;-1.10;99.90
21778;DHT22;11050;52.222;20.916;2024-01-06T06:42:01;-1.00;99.90
21778;DHT22;11050;52.222;20.916;2024-01-06T06:44:27;-1.00;99.90
21778;DHT22;11050;52.222;20.916;2024-01-06T06:46:53;-1.00;99.90
21778;DHT22;11050;52.222;20.916;2024-01-06T06:49:18;-1.00;99.90
21778;DHT22;11050;52.222;20.916;2024-01-06T06:51:44;-1.00;99.90
21778;DHT22;11050;52.222;20.916;2024-01-06T06:54:14;-1.00;99.90
21778;DHT22;11050;52.222;20.916;2024-01-06T06:56:42;-1.00;99.90
21778;DHT22;11050;52.222;20.916;2024-01-06T06:59:08;-1.00;99.90
21778;DHT22;11050;52.222;20.916;2024-01-06T07:01:33;-1.00;99.90
21778;DHT22;11050;52.222;20.916;2024-01-06T07:03:59;-1.00;99.90
21778;DHT22;11050;52.222;20.916;2024-01-06T07:06:25;-1.00;99.90
21778;DHT22;11050;52.222;20.916;2024-01-06T07:08:51;-1.00;99.90
21778;DHT22;11050;52.222;20.916;2024-01-06T07:11:17;-1.00;99.90
21778;DHT22;11050;52.222;20.916;2024-01-06T07:13:44;-1.00;99.90
21778;DHT22;11050;52.222;20.916;2024-01-06T07:16:10;-1.00;99.90
21778;DHT22;11050;52.222;20.916;2024-01-06T07:18:37;-1.00;99.90
21778;DHT22;11050;52.222;20.916;2024-01-06T07:21:06;-1.00;99.90
21778;DHT22;11050;52.222;20.916;2024-01-06T07:23:32;-0.90;99.90
21778;DHT22;11050;52.222;20.916;2024-01-06T07:25:58;-1.00;99.90
21778;DHT22;11050;52.222;20.916;2024-01-06T07:28:24;-1.00;99.90
21778;DHT22;11050;52.222;20.916;2024-01-06T07:30:50;-1.00;99.90
21778;DHT22;11050;52.222;20.916;2024-01-06T07:33:15;-1.00;99.90
21778;DHT22;11050;52.222;20.916;2024-01-06T07:35:41;-1.00;99.90
21778;DHT22;11050;52.222;20.916;2024-01-06T07:38:12;-1.00;99.90
21778;DHT22;11050;52.222;20.916;2024-01-06T07:40:38;-1.00;99.90
21778;DHT22;11050;52.222;20.916;2024-01-06T07:43:04;-1.00;99.90
21778;DHT22;11050;52.222;20.916;2024-01-06T07:45:31;-0.90;99.90
21778;DHT22;11050;52.222;20.916;2024-01-06T07:48:01;-0.90;99.90
21778;DHT22;11050;52.222;20.916;2024-01-06T07:50:27;-0.90;99.90
21778;DHT22;11050;52.222;20.916;2024-01-06T07:52:53;-0.90;99.90
21778;DHT22;11050;52.222;20.916;2024-01-06T07:55:19;-0.90;99.90
21778;DHT22;11050;52.222;20.916;2024-01-06T07:57:45;-0.90;99.90
21778;DHT22;11050;52.222;20.916;2024-01-06T08:00:12;-0.90;99.90
21778;DHT22;11050;52.222;20.916;2024-01-06T08:02:40;-0.90;99.90
21778;DHT22;11050;52.222;20.916;2024-01-06T08:05:06;-0.80;99.90
21778;DHT22;11050;52.222;20.916;2024-01-06T08:07:33;-0.80;99.90
21778;DHT22;11050;52.222;20.916;2024-01-06T08:09:59;-0.80;99.90
21778;DHT22;11050;52.222;20.916;2024-01-06T08:12:24;-0.80;99.90
21778;DHT22;11050;52.222;20.916;2024-01-06T08:14:50;-0.70;99.90
21778;DHT22;11050;52.222;20.916;2024-01-06T08:17:16;-0.70;99.90
21778;DHT22;11050;52.222;20.916;2024-01-06T08:19:42;-0.70;99.90
21778;DHT22;11050;52.222;20.916;2024-01-06T08:22:08;-0.70;99.90
21778;DHT22;11050;52.222;20.916;2024-01-06T08:24:33;-0.70;99.90
21778;DHT22;11050;52.222;20.916;2024-01-06T08:26:59;-0.70;99.90
21778;DHT22;11050;52.222;20.916;2024-01-06T08:29:25;-0.60;99.90
21778;DHT22;11050;52.222;20.916;2024-01-06T08:31:51;-0.60;99.90
21778;DHT22;11050;52.222;20.916;2024-01-06T08:34:18;-0.60;99.90
21778;DHT22;11050;52.222;20.916;2024-01-06T08:36:44;-0.60;99.90
21778;DHT22;11050;52.222;20.916;2024-01-06T08:39:10;-0.50;99.90
21778;DHT22;11050;52.222;20.916;2024-01-06T08:41:36;-0.50;99.90
21778;DHT22;11050;52.222;20.916;2024-01-06T08:44:02;-0.50;99.90
21778;DHT22;11050;52.222;20.916;2024-01-06T08:46:28;-0.50;99.90
21778;DHT22;11050;52.222;20.916;2024-01-06T08:48:54;-0.50;99.90
21778;DHT22;11050;52.222;20.916;2024-01-06T08:51:19;-0.50;99.90
21778;DHT22;11050;52.222;20.916;2024-01-06T08:53:46;-0.60;99.90
21778;DHT22;11050;52.222;20.916;2024-01-06T08:56:12;-0.60;99.90
21778;DHT22;11050;52.222;20.916;2024-01-06T08:58:37;-0.60;99.90
21778;DHT22;11050;52.222;20.916;2024-01-06T09:01:03;-0.60;99.90
21778;DHT22;11050;52.222;20.916;2024-01-06T09:03:29;-0.60;99.90
21778;DHT22;11050;52.222;20.916;2024-01-06T09:05:56;-0.60;99.90
21778;DHT22;11050;52.222;20.916;2024-01-06T09:08:23;-0.60;99.90
21778;DHT22;11050;52.222;20.916;2024-01-06T09:10:49;-0.60;99.90
21778;DHT22;11050;52.222;20.916;2024-01-06T09:13:17;-0.50;99.90
21778;DHT22;11050;52.222;20.916;2024-01-06T09:15:43;-0.60;99.90
21778;DHT22;11050;52.222;20.916;2024-01-06T09:18:09;-0.50;99.90
21778;DHT22;11050;52.222;20.916;2024-01-06T09:20:35;-0.50;99.90
21778;DHT22;11050;52.222;20.916;2024-01-06T09:23:01;-0.50;99.90
21778;DHT22;11050;52.222;20.916;2024-01-06T09:25:27;-0.50;99.90
21778;DHT22;11050;52.222;20.916;2024-01-06T09:27:52;-0.50;99.90
21778;DHT22;11050;52.222;20.916;2024-01-06T09:30:18;-0.50;99.90
21778;DHT22;11050;52.222;20.916;2024-01-06T09:32:44;-0.50;99.90
21778;DHT22;11050;52.222;20.916;2024-01-06T09:35:10;-0.50;99.90
21778;DHT22;11050;52.222;20.916;2024-01-06T09:37:36;-0.50;99.90
21778;DHT22;11050;52.222;20.916;2024-01-06T09:40:02;-0.50;99.90
21778;DHT22;11050;52.222;20.916;2024-01-06T09:42:28;-0.50;99.90
21778;DHT22;11050;52.222;20.916;2024-01-06T09:44:54;-0.50;99.90
21778;DHT22;11050;52.222;20.916;2024-01-06T09:47:22;-0.50;99.90
21778;DHT22;11050;52.222;20.916;2024-01-06T09:49:49;-0.50;99.90
21778;DHT22;11050;52.222;20.916;2024-01-06T09:52:17;-0.50;99.90
21778;DHT22;11050;52.222;20.916;2024-01-06T09:54:53;-0.50;99.90
21778;DHT22;11050;52.222;20.916;2024-01-06T09:57:21;-0.50;99.90
21778;DHT22;11050;52.222;20.916;2024-01-06T09:59:48;-0.40;99.90
21778;DHT22;11050;52.222;20.916;2024-01-06T10:02:16;-0.40;99.90
21778;DHT22;11050;52.222;20.916;2024-01-06T10:04:43;-0.40;99.90
21778;DHT22;11050;52.222;20.916;2024-01-06T10:07:10;-0.30;99.90
21778;DHT22;11050;52.222;20.916;2024-01-06T10:09:41;-0.30;99.90
21778;DHT22;11050;52.222;20.916;2024-01-06T10:12:08;-0.30;99.90
21778;DHT22;11050;52.222;20.916;2024-01-06T10:14:35;-0.30;99.90
21778;DHT22;11050;52.222;20.916;2024-01-06T10:17:01;-0.30;99.90
21778;DHT22;11050;52.222;20.916;2024-01-06T10:19:27;-0.20;99.90
21778;DHT22;11050;52.222;20.916;2024-01-06T10:21:54;-0.20;99.90
21778;DHT22;11050;52.222;20.916;2024-01-06T10:24:20;-0.20;99.90
21778;DHT22;11050;52.222;20.916;2024-01-06T10:26:46;-0.20;99.90
21778;DHT22;11050;52.222;20.916;2024-01-06T10:29:13;-0.20;99.90
21778;DHT22;11050;52.222;20.916;2024-01-06T10:31:39;-0.30;99.90
21778;DHT22;11050;52.222;20.916;2024-01-06T10:34:05;-0.30;99.90
21778;DHT22;11050;52.222;20.916;2024-01-06T10:36:31;-0.30;99.90
21778;DHT22;11050;52.222;20.916;2024-01-06T10:38:57;-0.30;99.90
21778;DHT22;11050;52.222;20.916;2024-01-06T10:41:24;-0.30;99.90
21778;DHT22;11050;52.222;20.916;2024-01-06T10:43:51;-0.30;99.90
21778;DHT22;11050;52.222;20.916;2024-01-06T10:46:19;-0.30;99.90
21778;DHT22;11050;52.222;20.916;2024-01-06T10:48:46;-0.30;99.90
21778;DHT22;11050;52.222;20.916;2024-01-06T10:51:13;-0.30;99.90
21778;DHT22;11050;52.222;20.916;2024-01-06T10:53:41;-0.30;99.90
21778;DHT22;11050;52.222;20.916;2024-01-06T10:56:07;-0.30;99.90
21778;DHT22;11050;52.222;20.916;2024-01-06T10:58:35;-0.30;99.90
21778;DHT22;11050;52.222;20.916;2024-01-06T11:01:10;-0.30;99.90
21778;DHT22;11050;52.222;20.916;2024-01-06T11:03:38;-0.30;99.90
21778;DHT22;11050;52.222;20.916;2024-01-06T11:06:08;-0.20;99.90
21778;DHT22;11050;52.222;20.916;2024-01-06T11:08:43;-0.20;99.90
21778;DHT22;11050;52.222;20.916;2024-01-06T11:11:18;-0.20;99.90
21778;DHT22;11050;52.222;20.916;2024-01-06T11:13:46;-0.10;99.90
21778;DHT22;11050;52.222;20.916;2024-01-06T11:16:33;-0.20;99.90
21778;DHT22;11050;52.222;20.916;2024-01-06T11:19:00;-0.10;99.90
21778;DHT22;11050;52.222;20.916;2024-01-06T11:21:26;-0.10;99.90
21778;DHT22;11050;52.222;20.916;2024-01-06T11:26:45;-0.10;99.90
21778;DHT22;11050;52.222;20.916;2024-01-06T11:29:11;-0.10;99.90
21778;DHT22;11050;52.222;20.916;2024-01-06T11:31:38;-0.10;99.90
21778;DHT22;11050;52.222;20.916;2024-01-06T11:34:17;-0.10;99.90
21778;DHT22;11050;52.222;20.916;2024-01-06T11:36:53;0.00;99.90
21778;DHT22;11050;52.222;20.916;2024-01-06T11:39:35;0.00;99.90
21778;DHT22;11050;52.222;20.916;2024-01-06T11:42:05;0.00;99.90
21778;DHT22;11050;52.222;20.916;2024-01-06T11:44:34;0.00;99.90
21778;DHT22;11050;52.222;20.916;2024-01-06T11:47:04;0.10;99.90
21778;DHT22;11050;52.222;20.916;2024-01-06T11:49:31;0.10;99.90
21778;DHT22;11050;52.222;20.916;2024-01-06T11:51:58;0.10;99.90
21778;DHT22;11050;52.222;20.916;2024-01-06T11:54:24;0.10;99.90
21778;DHT22;11050;52.222;20.916;2024-01-06T11:56:50;0.10;99.90
21778;DHT22;11050;52.222;20.916;2024-01-06T11:59:19;0.10;99.90
21778;DHT22;11050;52.222;20.916;2024-01-06T12:01:46;0.10;99.90
21778;DHT22;11050;52.222;20.916;2024-01-06T12:04:14;0.20;99.90
21778;DHT22;11050;52.222;20.916;2024-01-06T12:06:43;0.20;99.90
21778;DHT22;11050;52.222;20.916;2024-01-06T12:09:12;0.20;99.90
21778;DHT22;11050;52.222;20.916;2024-01-06T12:11:41;0.20;99.90
21778;DHT22;11050;52.222;20.916;2024-01-06T12:14:10;0.20;99.90
21778;DHT22;11050;52.222;20.916;2024-01-06T12:16:36;0.20;99.90
21778;DHT22;11050;52.222;20.916;2024-01-06T12:19:02;0.20;99.90
21778;DHT22;11050;52.222;20.916;2024-01-06T12:21:29;0.20;99.90
21778;DHT22;11050;52.222;20.916;2024-01-06T12:24:19;0.20;99.90
21778;DHT22;11050;52.222;20.916;2024-01-06T12:26:49;0.10;99.90
21778;DHT22;11050;52.222;20.916;2024-01-06T12:29:17;0.10;99.90
21778;DHT22;11050;52.222;20.916;2024-01-06T12:31:43;0.00;99.90
21778;DHT22;11050;52.222;20.916;2024-01-06T12:34:10;0.00;99.90
21778;DHT22;11050;52.222;20.916;2024-01-06T12:36:37;0.00;99.90
21778;DHT22;11050;52.222;20.916;2024-01-06T12:39:04;0.10;99.90
21778;DHT22;11050;52.222;20.916;2024-01-06T12:41:30;0.10;99.90
21778;DHT22;11050;52.222;20.916;2024-01-06T12:43:59;0.10;99.90
21778;DHT22;11050;52.222;20.916;2024-01-06T12:46:26;0.10;99.90
21778;DHT22;11050;52.222;20.916;2024-01-06T12:48:52;0.10;99.90
21778;DHT22;11050;52.222;20.916;2024-01-06T12:51:18;0.10;99.90
21778;DHT22;11050;52.222;20.916;2024-01-06T12:53:44;0.10;99.90
21778;DHT22;11050;52.222;20.916;2024-01-06T12:56:10;0.00;99.90
21778;DHT22;11050;52.222;20.916;2024-01-06T12:58:35;0.10;99.90
21778;DHT22;11050;52.222;20.916;2024-01-06T13:01:01;0.10;99.90
21778;DHT22;11050;52.222;20.916;2024-01-06T13:03:28;0.10;99.90
21778;DHT22;11050;52.222;20.916;2024-01-06T13:05:54;0.10;99.90
21778;DHT22;11050;52.222;20.916;2024-01-06T13:08:20;0.00;99.90
21778;DHT22;11050;52.222;20.916;2024-01-06T13:10:46;0.00;99.90
21778;DHT22;11050;52.222;20.916;2024-01-06T13:13:12;0.00;99.90
21778;DHT22;11050;52.222;20.916;2024-01-06T13:15:37;0.00;99.90
21778;DHT22;11050;52.222;20.916;2024-01-06T13:18:04;0.00;99.90
21778;DHT22;11050;52.222;20.916;2024-01-06T13:20:30;0.00;99.90
21778;DHT22;11050;52.222;20.916;2024-01-06T13:22:56;0.00;99.90
21778;DHT22;11050;52.222;20.916;2024-01-06T13:25:21;-0.10;99.90
21778;DHT22;11050;52.222;20.916;2024-01-06T13:27:47;0.00;99.90
21778;DHT22;11050;52.222;20.916;2024-01-06T13:30:13;-0.10;99.90
21778;DHT22;11050;52.222;20.916;2024-01-06T13:32:41;-0.10;99.90
21778;DHT22;11050;52.222;20.916;2024-01-06T13:35:07;-0.10;99.90
21778;DHT22;11050;52.222;20.916;2024-01-06T13:37:34;-0.20;99.90
21778;DHT22;11050;52.222;20.916;2024-01-06T13:40:00;-0.20;99.90
21778;DHT22;11050;52.222;20.916;2024-01-06T13:42:25;-0.20;99.90
21778;DHT22;11050;52.222;20.916;2024-01-06T13:44:52;-0.30;99.90
21778;DHT22;11050;52.222;20.916;2024-01-06T13:47:18;-0.30;99.90
21778;DHT22;11050;52.222;20.916;2024-01-06T13:49:44;-0.30;99.90
21778;DHT22;11050;52.222;20.916;2024-01-06T13:52:10;-0.40;99.90
21778;DHT22;11050;52.222;20.916;2024-01-06T13:54:35;-0.40;99.90
21778;DHT22;11050;52.222;20.916;2024-01-06T13:57:01;-0.40;99.90
21778;DHT22;11050;52.222;20.916;2024-01-06T13:59:28;-0.40;99.90
21778;DHT22;11050;52.222;20.916;2024-01-06T14:01:54;-0.40;99.90
21778;DHT22;11050;52.222;20.916;2024-01-06T14:04:21;-0.40;99.90
21778;DHT22;11050;52.222;20.916;2024-01-06T14:06:49;-0.40;99.90
21778;DHT22;11050;52.222;20.916;2024-01-06T14:09:21;-0.40;99.90
21778;DHT22;11050;52.222;20.916;2024-01-06T14:11:47;-0.40;99.90
21778;DHT22;11050;52.222;20.916;2024-01-06T14:14:12;-0.50;99.90
21778;DHT22;11050;52.222;20.916;2024-01-06T14:16:38;-0.50;99.90
21778;DHT22;11050;52.222;20.916;2024-01-06T14:19:04;-0.50;99.90
21778;DHT22;11050;52.222;20.916;2024-01-06T14:21:30;-0.50;99.90
21778;DHT22;11050;52.222;20.916;2024-01-06T14:23:55;-0.40;99.90
21778;DHT22;11050;52.222;20.916;2024-01-06T14:26:21;-0.50;99.90
21778;DHT22;11050;52.222;20.916;2024-01-06T14:28:47;-0.40;99.90
21778;DHT22;11050;52.222;20.916;2024-01-06T14:31:13;-0.50;99.90
21778;DHT22;11050;52.222;20.916;2024-01-06T14:33:39;-0.50;99.90
21778;DHT22;11050;52.222;20.916;2024-01-06T14:36:05;-0.50;99.90
21778;DHT22;11050;52.222;20.916;2024-01-06T14:38:32;-0.60;99.90
21778;DHT22;11050;52.222;20.916;2024-01-06T14:40:57;-0.60;99.90
21778;DHT22;11050;52.222;20.916;2024-01-06T14:43:24;-0.60;99.90
21778;DHT22;11050;52.222;20.916;2024-01-06T14:45:50;-0.60;99.90
21778;DHT22;11050;52.222;20.916;2024-01-06T14:48:15;-0.60;99.90
21778;DHT22;11050;52.222;20.916;2024-01-06T14:50:41;-0.60;99.90
21778;DHT22;11050;52.222;20.916;2024-01-06T14:53:07;-0.70;99.90
21778;DHT22;11050;52.222;20.916;2024-01-06T14:55:33;-0.70;99.90
21778;DHT22;11050;52.222;20.916;2024-01-06T14:57:59;-0.70;99.90
21778;DHT22;11050;52.222;20.916;2024-01-06T15:00:25;-0.70;99.90
21778;DHT22;11050;52.222;20.916;2024-01-06T15:02:51;-0.70;99.90
21778;DHT22;11050;52.222;20.916;2024-01-06T15:05:17;-0.70;99.90
21778;DHT22;11050;52.222;20.916;2024-01-06T15:07:43;-0.70;99.90
21778;DHT22;11050;52.222;20.916;2024-01-06T15:10:09;-0.70;99.90
21778;DHT22;11050;52.222;20.916;2024-01-06T15:12:35;-0.70;99.90
21778;DHT22;11050;52.222;20.916;2024-01-06T15:15:01;-0.70;99.90
21778;DHT22;11050;52.222;20.916;2024-01-06T15:17:27;-0.70;99.90